Time;durP1;ratioP1;P1;durP2;ratioP2;P2;SDS_P1;SDS_P2;PMS_P1;PMS_P2;Temp;Humidity;BMP_temperature;BMP_pressure;BME280_temperature;BME280_humidity;BME280_pressure;Samples;Min_cycle;Max_cycle;Signal;HPM_P1;HPM_P2
2021/05/08 00:02:23;;;;;;;9.35;4.85;;;;;;;12.03;33.13;99225.25;5051934;28;20040;-63
2021/05/08 00:04:49;;;;;;;8.68;4.82;;;;;;;11.75;33.24;99162.66;5051980;28;20396;-64
2021/05/08 00:07:15;;;;;;;8.43;5.00;;;;;;;12.05;33.48;99215.22;5052350;28;20380;-64
2021/05/08 00:09:40;;;;;;;7.97;4.47;;;;;;;12.11;33.47;99218.28;5052034;28;20029;-63
2021/05/08 00:12:06;;;;;;;11.65;5.60;;;;;;;12.09;33.49;99213.09;5053306;28;20124;-64
2021/05/08 00:14:31;;;;;;;11.32;4.97;;;;;;;11.67;33.62;99133.88;5054187;28;20036;-63
2021/05/08 00:16:57;;;;;;;9.02;4.70;;;;;;;11.87;33.43;99171.34;5054138;28;20069;-63
2021/05/08 00:19:23;;;;;;;9.20;5.25;;;;;;;12.16;33.44;99200.75;5054074;28;20025;-64
2021/05/08 00:21:49;;;;;;;14.35;5.03;;;;;;;12.28;33.44;99203.22;5054118;28;20039;-62
2021/05/08 00:24:15;;;;;;;13.82;5.22;;;;;;;12.28;33.10;99208.59;5053927;28;20060;-63
2021/05/08 00:26:40;;;;;;;12.10;5.22;;;;;;;12.15;33.53;99187.47;5053703;28;20049;-64
2021/05/08 00:29:06;;;;;;;7.45;4.60;;;;;;;12.28;33.25;99208.59;5053715;28;20514;-64
2021/05/08 00:31:32;;;;;;;11.13;4.90;;;;;;;12.15;33.35;99185.66;5054341;28;20041;-63
2021/05/08 00:33:58;;;;;;;9.75;5.03;;;;;;;11.99;33.74;99161.28;5054040;28;20478;-63
2021/05/08 00:36:23;;;;;;;11.15;5.10;;;;;;;12.39;33.55;99219.13;5052592;28;20033;-64
2021/05/08 00:38:49;;;;;;;11.30;5.20;;;;;;;12.40;33.46;99225.34;5053367;28;20119;-64
2021/05/08 00:41:15;;;;;;;10.15;4.88;;;;;;;12.44;33.82;99235.63;5053423;28;20040;-63
2021/05/08 00:43:40;;;;;;;7.70;4.55;;;;;;;12.40;33.84;99226.19;5053366;28;20049;-63
2021/05/08 00:46:06;;;;;;;9.57;4.88;;;;;;;12.36;34.07;99227.50;5053234;28;20025;-63
2021/05/08 00:48:32;;;;;;;7.95;4.03;;;;;;;12.19;33.88;99180.84;5053767;28;20481;-62
2021/05/08 00:50:58;;;;;;;9.02;3.60;;;;;;;12.48;34.20;99228.13;5053825;28;20033;-63
2021/05/08 00:53:24;;;;;;;7.18;3.97;;;;;;;12.49;34.19;99216.38;5053295;28;20515;-63
2021/05/08 00:55:50;;;;;;;7.85;4.18;;;;;;;12.43;34.46;99215.16;5053039;28;20029;-63
2021/05/08 00:58:17;;;;;;;6.45;3.63;;;;;;;12.49;34.66;99217.22;5053462;28;20115;-63
2021/05/08 01:00:42;;;;;;;8.50;4.07;;;;;;;12.56;35.33;99212.09;5052326;28;20480;-63
2021/05/08 01:03:08;;;;;;;6.80;3.55;;;;;;;12.20;35.83;99163.75;5051966;28;20060;-62
2021/05/08 01:05:36;;;;;;;5.93;3.40;;;;;;;12.61;36.64;99217.84;5052832;28;20052;-62
2021/05/08 01:08:03;;;;;;;5.82;3.28;;;;;;;12.66;37.92;99211.16;5053338;28;20037;-62
2021/05/08 01:10:30;;;;;;;8.35;3.67;;;;;;;12.54;38.24;99191.75;5053580;28;20029;-61
2021/05/08 01:12:57;;;;;;;8.38;3.30;;;;;;;12.62;38.66;99207.97;5052891;28;20036;-63
2021/05/08 01:15:23;;;;;;;7.68;3.58;;;;;;;12.40;38.34;99169.81;5052961;28;20499;-63
2021/05/08 01:17:48;;;;;;;5.63;3.63;;;;;;;12.64;38.67;99201.41;5053130;28;20065;-62
2021/05/08 01:20:14;;;;;;;6.13;3.70;;;;;;;12.64;39.13;99201.41;5053176;28;20032;-63
2021/05/08 01:22:40;;;;;;;5.30;3.60;;;;;;;12.73;38.99;99214.94;5052991;28;20033;-63
2021/05/08 01:25:09;;;;;;;7.78;3.95;;;;;;;12.63;39.05;99189.00;5052210;28;20056;-63
2021/05/08 01:27:42;;;;;;;5.00;3.53;;;;;;;12.75;39.28;99192.28;5052650;28;20566;-62
2021/05/08 01:30:08;;;;;;;5.53;3.65;;;;;;;11.99;39.09;99084.31;5052551;28;20194;-63
2021/05/08 01:32:34;;;;;;;7.15;3.33;;;;;;;12.32;38.67;99140.22;5052851;28;20037;-62
2021/05/08 01:34:59;;;;;;;7.72;3.35;;;;;;;12.74;38.96;99217.47;5052920;28;20033;-63
2021/05/08 01:37:25;;;;;;;5.93;3.33;;;;;;;12.74;39.11;99222.84;5052426;28;20075;-63
2021/05/08 01:39:51;;;;;;;6.82;3.20;;;;;;;12.69;39.04;99200.97;5052245;28;20127;-63
2021/05/08 01:42:16;;;;;;;9.63;3.45;;;;;;;12.78;38.76;99218.88;5052751;28;20045;-62
2021/05/08 01:44:42;;;;;;;9.77;3.50;;;;;;;12.62;39.31;99181.94;5052458;28;20036;-63
2021/05/08 01:47:07;;;;;;;6.03;3.50;;;;;;;12.71;39.34;99212.41;5052613;28;20041;-63
2021/05/08 01:49:33;;;;;;;7.47;3.20;;;;;;;12.74;39.65;99213.94;5052671;28;20037;-63
2021/05/08 01:51:58;;;;;;;6.50;3.55;;;;;;;12.17;40.18;99140.72;5052155;28;20037;-63
2021/05/08 01:54:24;;;;;;;9.07;3.47;;;;;;;12.68;40.25;99220.78;5052620;28;20047;-63
2021/05/08 01:56:49;;;;;;;9.30;3.67;;;;;;;12.63;40.76;99225.75;5051947;28;20132;-63
2021/05/08 01:59:15;;;;;;;4.57;3.00;;;;;;;12.32;41.20;99175.94;5052252;28;20033;-62
2021/05/08 02:01:40;;;;;;;4.70;3.25;;;;;;;12.60;41.82;99236.81;5052068;28;20467;-62
2021/05/08 02:04:09;;;;;;;9.07;3.45;;;;;;;12.53;42.16;99211.53;5051849;28;20082;-64
2021/05/08 02:06:36;;;;;;;4.90;3.10;;;;;;;12.54;42.50;99221.28;5052466;28;20044;-62
2021/05/08 02:09:03;;;;;;;6.28;3.28;;;;;;;12.46;42.99;99214.00;5052533;28;20044;-63
2021/05/08 02:11:29;;;;;;;9.27;3.50;;;;;;;12.46;43.26;99219.38;5051706;28;20028;-63
2021/05/08 02:13:54;;;;;;;6.75;3.28;;;;;;;12.18;43.92;99181.84;5051783;28;20033;-63
2021/05/08 02:16:19;;;;;;;4.93;3.15;;;;;;;12.38;44.63;99227.31;5052036;28;20124;-64
2021/05/08 02:18:45;;;;;;;4.60;3.38;;;;;;;12.17;44.77;99213.19;5051832;28;20122;-63
2021/05/08 02:21:10;;;;;;;5.00;3.25;;;;;;;12.24;44.98;99232.22;5050309;28;20118;-63
2021/05/08 02:23:36;;;;;;;5.88;3.45;;;;;;;12.06;45.70;99208.03;5051791;28;20037;-64
2021/05/08 02:26:01;;;;;;;5.68;3.38;;;;;;;12.14;46.37;99221.53;5051547;28;20119;-62
2021/05/08 02:28:27;;;;;;;5.03;3.45;;;;;;;12.11;46.75;99231.69;5051752;28;20033;-63
2021/05/08 02:30:53;;;;;;;5.80;4.00;;;;;;;11.97;47.32;99222.28;5051598;28;20041;-64
2021/05/08 02:33:18;;;;;;;5.63;3.45;;;;;;;11.98;47.70;99226.66;5051543;28;20558;-63
2021/05/08 02:35:44;;;;;;;4.55;3.03;;;;;;;11.88;48.13;99216.81;5052190;28;20037;-63
2021/05/08 02:38:09;;;;;;;5.97;3.40;;;;;;;11.91;48.37;99229.94;5051293;28;20073;-62
2021/05/08 02:40:37;;;;;;;5.65;3.42;;;;;;;11.79;49.64;99225.72;5050362;28;20411;-64
2021/05/08 02:43:08;;;;;;;9.02;3.65;;;;;;;11.84;50.18;99258.34;5051439;28;20029;-63
2021/05/08 02:45:34;;;;;;;9.65;3.95;;;;;;;11.80;49.95;99245.34;5051562;28;20037;-63
2021/05/08 02:48:00;;;;;;;3.85;3.05;;;;;;;11.72;50.42;99228.16;5051360;28;20029;-62
2021/05/08 02:50:26;;;;;;;5.45;3.80;;;;;;;11.74;50.60;99228.00;5050782;28;20041;-63
2021/05/08 02:52:51;;;;;;;4.90;3.75;;;;;;;11.73;50.86;99240.59;5051026;28;20374;-63
2021/05/08 02:55:17;;;;;;;5.95;3.88;;;;;;;11.70;51.39;99226.63;5051159;28;20036;-63
2021/05/08 02:57:43;;;;;;;4.82;3.33;;;;;;;11.62;52.13;99225.50;5051401;28;20091;-62
2021/05/08 03:00:17;;;;;;;5.13;3.58;;;;;;;11.58;53.09;99216.06;5050793;28;20473;-62
2021/05/08 03:02:43;;;;;;;4.55;3.45;;;;;;;11.57;52.66;99230.44;5051185;28;20037;-63
2021/05/08 03:05:09;;;;;;;6.43;3.80;;;;;;;11.42;53.11;99221.19;5051376;28;20068;-63
2021/05/08 03:07:35;;;;;;;5.13;3.47;;;;;;;11.42;53.51;99218.50;5050003;28;20071;-63
2021/05/08 03:10:00;;;;;;;6.35;4.15;;;;;;;11.40;54.24;99225.84;5050578;28;20450;-63
2021/05/08 03:12:26;;;;;;;4.55;3.83;;;;;;;11.34;53.80;99212.03;5050645;28;20041;-62
2021/05/08 03:14:52;;;;;;;6.63;3.72;;;;;;;11.29;54.19;99211.59;5050805;28;20388;-62
2021/05/08 03:17:17;;;;;;;5.13;3.90;;;;;;;11.23;54.48;99217.53;5050916;28;20048;-62
2021/05/08 03:19:43;;;;;;;4.63;3.83;;;;;;;11.22;55.18;99229.25;5050499;28;20432;-63
2021/05/08 03:22:08;;;;;;;7.03;4.18;;;;;;;11.10;55.46;99196.41;5050631;28;20028;-62
2021/05/08 03:24:34;;;;;;;8.18;4.57;;;;;;;11.15;56.23;99212.06;5050369;28;20057;-63
2021/05/08 03:27:00;;;;;;;7.50;5.35;;;;;;;11.14;56.51;99207.69;5050706;28;20040;-64
2021/05/08 03:29:26;;;;;;;5.10;4.45;;;;;;;11.12;56.87;99209.69;5050243;28;20500;-63
2021/05/08 03:31:52;;;;;;;5.93;4.93;;;;;;;11.12;56.95;99215.88;5050471;28;20102;-63
2021/05/08 03:34:17;;;;;;;8.45;5.85;;;;;;;11.08;57.20;99205.56;5050335;28;20120;-62
2021/05/08 03:36:43;;;;;;;7.45;5.32;;;;;;;11.03;57.71;99203.34;5049497;28;20457;-62
2021/05/08 03:39:09;;;;;;;9.18;5.20;;;;;;;11.00;57.70;99214.34;5050634;28;20408;-64
2021/05/08 03:41:34;;;;;;;8.70;4.85;;;;;;;10.93;57.89;99206.00;5050512;28;20076;-64
2021/05/08 03:44:00;;;;;;;9.25;5.10;;;;;;;10.97;58.32;99214.59;5049614;28;20488;-65
2021/05/08 03:46:25;;;;;;;7.93;5.05;;;;;;;10.65;58.16;99157.69;5050271;28;20619;-64
2021/05/08 03:48:51;;;;;;;7.60;5.65;;;;;;;10.75;58.21;99182.63;5050545;28;20029;-63
2021/05/08 03:51:16;;;;;;;5.68;4.72;;;;;;;10.78;58.84;99197.56;5050304;28;20049;-62
2021/05/08 03:53:42;;;;;;;9.15;5.28;;;;;;;10.67;59.22;99184.31;5050136;28;20507;-62
2021/05/08 03:56:08;;;;;;;9.38;5.00;;;;;;;10.71;59.35;99183.03;5050813;28;20083;-63
2021/05/08 03:58:33;;;;;;;7.22;5.32;;;;;;;10.34;59.86;99118.47;5050250;28;20061;-63
2021/05/08 04:00:59;;;;;;;9.07;5.82;;;;;;;10.39;60.02;99099.34;5050237;28;20532;-63
2021/05/08 04:03:26;;;;;;;7.72;5.60;;;;;;;10.70;60.54;99174.16;5050243;28;20033;-63
2021/05/08 04:05:51;;;;;;;12.75;6.20;;;;;;;10.34;60.90;99126.50;5050343;28;20060;-63
2021/05/08 04:08:17;;;;;;;9.52;5.57;;;;;;;10.58;61.24;99149.38;5050024;28;20492;-63
2021/05/08 04:10:47;;;;;;;7.57;5.15;;;;;;;10.51;61.70;99150.06;5049597;28;20045;-62
2021/05/08 04:13:14;;;;;;;11.05;6.15;;;;;;;10.51;61.82;99158.09;5050218;28;20033;-62
2021/05/08 04:15:40;;;;;;;6.88;5.25;;;;;;;10.45;61.86;99159.50;5050152;28;20050;-63
2021/05/08 04:18:06;;;;;;;7.38;4.78;;;;;;;10.45;61.96;99146.97;5049924;28;20059;-63
2021/05/08 04:20:31;;;;;;;6.63;5.00;;;;;;;10.15;62.14;99081.88;5050300;28;20037;-63
2021/05/08 04:22:57;;;;;;;7.53;5.50;;;;;;;10.51;62.52;99145.56;5050051;28;20151;-63
2021/05/08 04:25:22;;;;;;;7.78;5.15;;;;;;;10.49;62.99;99155.56;5049755;28;20507;-63
2021/05/08 04:27:48;;;;;;;6.72;5.28;;;;;;;10.44;63.34;99139.06;5049941;28;20523;-63
2021/05/08 04:30:14;;;;;;;7.18;5.30;;;;;;;10.46;63.28;99148.66;5050286;28;20392;-63
2021/05/08 04:32:40;;;;;;;10.43;5.95;;;;;;;10.53;63.79;99140.91;5049016;28;20453;-64
2021/05/08 04:35:05;;;;;;;9.43;6.93;;;;;;;10.53;64.31;99137.38;5051022;28;20047;-62
2021/05/08 04:37:31;;;;;;;10.98;6.40;;;;;;;10.42;64.77;99157.97;5053702;28;20025;-63
2021/05/08 04:39:56;;;;;;;11.15;6.30;;;;;;;9.92;64.96;99070.56;5052685;28;20519;-63
2021/05/08 04:42:22;;;;;;;9.68;5.97;;;;;;;10.37;65.65;99143.25;5053433;28;20037;-63
2021/05/08 04:44:48;;;;;;;11.30;6.75;;;;;;;10.20;65.35;99114.38;5053144;28;20033;-63
2021/05/08 04:47:14;;;;;;;11.90;6.82;;;;;;;10.32;65.54;99133.81;5053889;28;20124;-63
2021/05/08 04:49:40;;;;;;;10.93;7.10;;;;;;;10.37;65.80;99137.91;5053537;28;20572;-63
2021/05/08 04:52:06;;;;;;;7.70;5.57;;;;;;;10.27;65.87;99141.44;5053451;28;20064;-63
2021/05/08 04:54:32;;;;;;;9.65;6.60;;;;;;;10.17;66.16;99095.09;5053443;28;20067;-64
2021/05/08 04:56:57;;;;;;;8.77;4.95;;;;;;;10.45;65.53;99117.53;5053162;28;20044;-63
2021/05/08 04:59:22;;;;;;;8.02;5.72;;;;;;;10.44;66.04;99147.09;5052764;28;20091;-63
2021/05/08 05:01:48;;;;;;;8.50;5.60;;;;;;;10.25;66.06;99102.41;5053244;28;20039;-62
2021/05/08 05:04:13;;;;;;;11.70;6.57;;;;;;;10.32;66.62;99119.59;5053330;28;20122;-62
2021/05/08 05:06:39;;;;;;;7.05;5.60;;;;;;;10.42;66.51;99128.53;5052800;28;20129;-63
2021/05/08 05:09:04;;;;;;;7.50;5.45;;;;;;;9.89;66.52;99052.97;5053262;28;20040;-63
2021/05/08 05:11:30;;;;;;;8.75;5.35;;;;;;;10.23;66.88;99107.88;5052908;28;20064;-63
2021/05/08 05:13:55;;;;;;;6.75;5.53;;;;;;;10.38;66.94;99120.88;5052819;28;20032;-63
2021/05/08 05:16:21;;;;;;;8.77;5.78;;;;;;;10.39;66.82;99112.72;5052874;28;20063;-61
2021/05/08 05:18:46;;;;;;;8.57;5.68;;;;;;;10.30;67.13;99109.03;5053190;28;20039;-62
2021/05/08 05:21:12;;;;;;;7.15;5.47;;;;;;;10.32;67.28;99095.50;5052948;28;20564;-62
2021/05/08 05:23:38;;;;;;;9.88;6.70;;;;;;;10.11;67.33;99063.56;5052489;28;20025;-62
2021/05/08 05:26:05;;;;;;;9.88;6.30;;;;;;;10.25;67.38;99095.25;5052649;28;20210;-62
2021/05/08 05:28:31;;;;;;;10.63;5.93;;;;;;;10.26;66.99;99080.03;5052748;28;20508;-62
2021/05/08 05:30:57;;;;;;;8.98;6.15;;;;;;;10.30;67.11;99081.44;5051936;28;20132;-62
2021/05/08 05:33:23;;;;;;;18.52;5.80;;;;;;;10.18;67.14;99096.78;5052386;28;20535;-62
2021/05/08 05:35:50;;;;;;;10.73;5.35;;;;;;;10.15;66.66;99063.13;5051828;28;20029;-62
2021/05/08 05:38:16;;;;;;;8.93;6.30;;;;;;;10.04;67.74;99098.03;5052537;28;20033;-62
2021/05/08 05:40:42;;;;;;;10.75;6.70;;;;;;;9.63;67.91;99024.06;5052005;28;20072;-62
2021/05/08 05:43:08;;;;;;;13.88;6.75;;;;;;;9.48;68.32;99012.09;5050872;28;20631;-63
2021/05/08 05:45:33;;;;;;;10.55;6.82;;;;;;;9.99;67.78;99054.81;5050750;28;20032;-63
2021/05/08 05:48:02;;;;;;;10.20;7.35;;;;;;;9.89;68.24;99060.16;5051951;28;20045;-63
2021/05/08 05:50:28;;;;;;;11.32;7.10;;;;;;;9.96;68.20;99052.41;5052290;28;20114;-61
2021/05/08 05:52:54;;;;;;;12.25;7.43;;;;;;;9.82;68.40;99035.78;5052429;28;20098;-62
2021/05/08 05:55:25;;;;;;;14.35;7.68;;;;;;;9.76;68.84;99049.72;5051987;28;20456;-62
2021/05/08 05:57:54;;;;;;;10.45;6.40;;;;;;;9.81;68.55;99017.22;5050446;28;20130;-63
2021/05/08 06:00:20;;;;;;;11.63;7.07;;;;;;;9.79;68.64;99013.84;5052261;28;20029;-63
2021/05/08 06:02:45;;;;;;;9.95;7.70;;;;;;;9.73;68.77;98984.00;5052135;28;20055;-61
2021/05/08 06:05:11;;;;;;;10.68;7.47;;;;;;;9.77;68.46;98984.56;5051912;28;20036;-62
2021/05/08 06:07:37;;;;;;;7.63;6.57;;;;;;;9.54;68.13;98919.84;5051930;28;20037;-61
2021/05/08 06:10:04;;;;;;;9.80;7.70;;;;;;;9.71;68.59;98969.94;5051802;28;20064;-62
2021/05/08 06:12:31;;;;;;;10.95;6.78;;;;;;;9.77;68.55;98964.03;5051323;28;20037;-62
2021/05/08 06:14:56;;;;;;;13.55;8.10;;;;;;;9.63;68.55;98962.59;5051711;28;20040;-63
2021/05/08 06:17:23;;;;;;;13.05;7.97;;;;;;;9.52;69.04;98946.72;5052105;28;20230;-61
2021/05/08 06:19:48;;;;;;;9.95;7.22;;;;;;;9.37;69.76;98940.06;5051796;28;20495;-63
2021/05/08 06:22:15;;;;;;;17.00;8.38;;;;;;;9.45;69.88;98930.38;5050232;28;20135;-63
2021/05/08 06:24:41;;;;;;;14.32;8.15;;;;;;;9.42;70.08;98943.19;5051669;28;20065;-63
2021/05/08 06:27:07;;;;;;;11.75;7.57;;;;;;;9.33;70.59;98967.06;5051866;28;20048;-63
2021/05/08 06:29:32;;;;;;;10.90;7.70;;;;;;;9.23;70.50;98943.97;5051375;28;20033;-62
2021/05/08 06:31:58;;;;;;;11.90;7.57;;;;;;;9.14;71.00;98940.28;5051409;28;20029;-63
2021/05/08 06:34:23;;;;;;;9.20;7.05;;;;;;;9.33;70.64;98948.34;5051466;28;20033;-62
2021/05/08 06:36:49;;;;;;;9.90;7.25;;;;;;;9.41;70.26;98917.47;5051830;28;20037;-63
2021/05/08 06:39:14;;;;;;;13.10;7.50;;;;;;;9.57;69.79;98944.47;5051163;28;20123;-62
2021/05/08 06:41:40;;;;;;;12.63;7.30;;;;;;;9.10;70.33;98874.78;5050633;28;20037;-63
2021/05/08 06:44:05;;;;;;;10.15;6.43;;;;;;;9.42;70.68;98970.72;5051105;28;20032;-63
2021/05/08 06:46:31;;;;;;;9.32;7.35;;;;;;;9.35;70.97;98910.84;5051384;28;20029;-63
2021/05/08 06:48:57;;;;;;;11.65;6.80;;;;;;;9.56;70.69;98932.09;5051196;28;20087;-61
2021/05/08 06:51:22;;;;;;;10.73;6.88;;;;;;;9.61;70.39;98916.47;5050537;28;20043;-62
2021/05/08 06:53:47;;;;;;;12.07;6.93;;;;;;;9.75;70.41;98917.03;5051439;28;20036;-64
2021/05/08 06:56:14;;;;;;;10.68;6.97;;;;;;;9.18;70.49;98840.25;5048360;28;20094;-64
2021/05/08 06:58:40;;;;;;;14.30;7.18;;;;;;;9.53;71.42;98907.47;5050059;28;20068;-63
2021/05/08 07:01:06;;;;;;;9.75;6.68;;;;;;;9.59;71.50;98910.41;5050243;28;20036;-62
2021/05/08 07:03:31;;;;;;;9.82;6.38;;;;;;;9.69;71.51;98920.28;5049702;28;20033;-62
2021/05/08 07:05:57;;;;;;;10.88;7.30;;;;;;;9.76;71.40;98900.00;5050889;28;20047;-62
2021/05/08 07:08:23;;;;;;;7.63;6.38;;;;;;;9.55;71.37;98890.31;5049702;28;20025;-62
2021/05/08 07:10:51;;;;;;;10.52;6.20;;;;;;;9.84;71.40;98897.47;5050842;28;20033;-63
2021/05/08 07:13:17;;;;;;;8.77;6.63;;;;;;;9.74;70.14;98854.69;5050338;28;20492;-62
2021/05/08 07:15:42;;;;;;;9.20;6.45;;;;;;;9.89;70.98;98905.06;5050682;28;20063;-62
2021/05/08 07:18:09;;;;;;;7.80;6.35;;;;;;;9.85;71.06;98909.84;5050444;28;20115;-62
2021/05/08 07:20:37;;;;;;;9.88;6.55;;;;;;;9.91;71.62;98929.84;5050406;28;20518;-62
2021/05/08 07:23:03;;;;;;;7.28;5.70;;;;;;;9.87;71.91;98915.06;5050286;28;20053;-62
2021/05/08 07:25:30;;;;;;;8.63;6.00;;;;;;;9.99;71.65;98918.44;5050052;28;20147;-62
2021/05/08 07:28:13;;;;;;;9.45;6.18;;;;;;;10.14;71.59;98922.38;5050486;28;20461;-63
2021/05/08 07:30:39;;;;;;;6.63;5.90;;;;;;;10.02;71.46;98897.59;5050220;28;20035;-63
2021/05/08 07:33:07;;;;;;;7.18;5.50;;;;;;;9.98;71.30;98887.34;5049395;28;20072;-63
2021/05/08 07:35:33;;;;;;;11.43;5.72;;;;;;;9.96;71.26;98903.50;5048514;28;20112;-63
2021/05/08 07:37:58;;;;;;;8.60;5.22;;;;;;;10.02;71.17;98886.91;5047640;28;20554;-62
2021/05/08 07:40:24;;;;;;;7.10;5.68;;;;;;;10.06;71.27;98898.16;5048097;28;20037;-63
2021/05/08 07:42:49;;;;;;;6.65;5.53;;;;;;;9.84;71.54;98869.91;5048253;28;20293;-66
2021/05/08 07:45:15;;;;;;;6.82;5.43;;;;;;;10.15;71.21;98902.66;5047738;28;20470;-63
2021/05/08 07:47:40;;;;;;;7.97;5.45;;;;;;;10.23;71.42;98903.75;5049239;28;20460;-61
2021/05/08 07:50:07;;;;;;;9.38;5.60;;;;;;;10.19;71.45;98909.41;5049511;28;20404;-61
2021/05/08 07:52:33;;;;;;;6.35;5.07;;;;;;;10.28;71.60;98890.78;5049941;28;20032;-61
2021/05/08 07:54:59;;;;;;;6.40;5.15;;;;;;;10.26;72.06;98903.47;5050041;28;20035;-62
2021/05/08 07:57:24;;;;;;;6.80;4.85;;;;;;;10.32;71.51;98876.13;5047404;28;20489;-62
2021/05/08 07:59:50;;;;;;;5.75;4.95;;;;;;;10.40;71.16;98886.09;5039205;28;20112;-63
2021/05/08 08:02:15;;;;;;;8.05;5.47;;;;;;;10.43;70.92;98865.28;5037682;28;20029;-62
2021/05/08 08:04:41;;;;;;;6.32;5.10;;;;;;;10.48;71.31;98881.72;5039060;28;20025;-64
2021/05/08 08:07:06;;;;;;;8.48;5.38;;;;;;;10.43;71.14;98867.97;5038689;28;20099;-63
2021/05/08 08:09:32;;;;;;;6.30;5.10;;;;;;;10.56;71.38;98889.03;5039285;28;20361;-62
2021/05/08 08:11:57;;;;;;;6.35;5.20;;;;;;;10.61;71.46;98886.75;5043578;28;20037;-64
2021/05/08 08:14:22;;;;;;;6.78;5.20;;;;;;;10.62;71.27;98877.72;5042785;28;20072;-63
2021/05/08 08:16:48;;;;;;;7.88;5.10;;;;;;;10.71;70.94;98886.72;5057496;28;20040;-63
2021/05/08 08:19:13;;;;;;;7.20;4.65;;;;;;;10.37;70.91;98804.31;5043390;28;20128;-63
2021/05/08 08:21:39;;;;;;;6.53;4.95;;;;;;;10.91;70.63;98870.56;5041886;28;20118;-62
2021/05/08 08:24:05;;;;;;;5.82;4.68;;;;;;;10.95;70.77;98871.06;5042889;28;20221;-62
2021/05/08 08:26:30;;;;;;;5.00;4.40;;;;;;;10.90;71.21;98855.47;5058051;28;20067;-61
2021/05/08 08:28:56;;;;;;;10.60;5.20;;;;;;;10.91;71.06;98841.91;5043993;28;20492;-62
2021/05/08 08:31:21;;;;;;;5.40;4.90;;;;;;;10.96;70.89;98837.94;5039609;28;20087;-61
2021/05/08 08:33:47;;;;;;;5.22;4.68;;;;;;;10.98;70.76;98839.50;5038569;28;20044;-63
2021/05/08 08:36:12;;;;;;;6.32;4.78;;;;;;;11.05;70.54;98837.88;5035565;28;20033;-62
2021/05/08 08:38:38;;;;;;;6.15;5.03;;;;;;;10.94;70.47;98832.75;5033539;28;20519;-63
2021/05/08 08:41:03;;;;;;;6.78;5.22;;;;;;;10.96;70.58;98868.25;5033351;28;20033;-62
2021/05/08 08:43:30;;;;;;;9.13;5.50;;;;;;;10.85;71.05;98844.34;5033522;28;20064;-61
2021/05/08 08:45:56;;;;;;;6.38;4.60;;;;;;;10.98;71.10;98876.16;5038172;28;20048;-62
2021/05/08 08:48:22;;;;;;;6.03;5.35;;;;;;;10.96;71.02;98857.56;5032985;28;20048;-63
2021/05/08 08:50:50;;;;;;;6.50;5.22;;;;;;;11.05;70.75;98829.84;5033411;28;20100;-64
2021/05/08 08:53:16;;;;;;;6.93;5.10;;;;;;;11.00;71.17;98842.84;5033276;28;20037;-62
2021/05/08 08:55:49;;;;;;;7.05;5.07;;;;;;;10.97;71.22;98832.44;5033080;28;20038;-63
2021/05/08 08:58:17;;;;;;;5.72;5.13;;;;;;;11.04;71.44;98817.44;5032815;28;20486;-64
2021/05/08 09:00:43;;;;;;;6.55;5.05;;;;;;;10.60;71.21;98740.53;5032097;28;20064;-62
2021/05/08 09:03:08;;;;;;;7.45;5.22;;;;;;;11.01;71.57;98824.97;5033127;28;20457;-64
2021/05/08 09:05:34;;;;;;;6.30;4.70;;;;;;;11.11;71.11;98832.94;5032790;28;20055;-65
2021/05/08 09:08:01;;;;;;;7.20;4.72;;;;;;;11.12;71.12;98858.72;5033103;28;20092;-63
2021/05/08 09:10:31;;;;;;;6.53;5.13;;;;;;;11.09;71.66;98835.75;5033307;28;20048;-63
2021/05/08 09:12:59;;;;;;;6.03;5.22;;;;;;;11.06;71.33;98831.53;5033128;28;20041;-63
2021/05/08 09:15:37;;;;;;;7.22;5.43;;;;;;;11.16;71.67;98846.72;5033011;28;20033;-61
2021/05/08 09:18:04;;;;;;;6.78;5.60;;;;;;;11.10;71.17;98823.22;5032394;28;20088;-65
2021/05/08 09:20:50;;;;;;;7.75;5.63;;;;;;;11.15;72.23;98819.06;5031885;28;20041;-64
2021/05/08 09:23:21;;;;;;;4.72;4.22;;;;;;;11.21;71.37;98839.06;5031427;28;20409;-63
2021/05/08 09:26:10;;;;;;;9.32;5.30;;;;;;;11.20;71.86;98823.97;5032954;28;20417;-64
2021/05/08 09:28:52;;;;;;;7.05;5.20;;;;;;;11.11;71.83;98816.88;5032609;28;20052;-64
2021/05/08 09:31:18;;;;;;;5.85;4.90;;;;;;;11.13;71.73;98826.41;5032196;28;20404;-64
2021/05/08 09:33:50;;;;;;;5.20;4.65;;;;;;;11.22;72.11;98829.19;5031493;28;20029;-62
2021/05/08 09:36:16;;;;;;;6.47;4.53;;;;;;;10.99;71.77;98809.03;5031454;28;20036;-61
2021/05/08 09:38:43;;;;;;;6.32;4.95;;;;;;;11.15;71.53;98835.13;5032606;28;20029;-61
2021/05/08 09:41:14;;;;;;;6.82;4.82;;;;;;;11.24;71.79;98829.88;5032377;28;20069;-62
2021/05/08 09:43:41;;;;;;;5.60;4.15;;;;;;;11.18;71.41;98828.66;5031852;28;20032;-61
2021/05/08 09:46:08;;;;;;;6.45;4.47;;;;;;;11.10;71.71;98824.03;5032164;28;20087;-61
2021/05/08 09:48:37;;;;;;;6.30;4.20;;;;;;;11.10;71.72;98818.69;5032224;28;20033;-62
2021/05/08 09:51:26;;;;;;;4.65;4.00;;;;;;;10.93;72.05;98766.81;5032357;28;20452;-61
2021/05/08 09:53:52;;;;;;;9.57;4.10;;;;;;;11.19;71.79;98820.44;5032252;28;20060;-59
2021/05/08 09:56:33;;;;;;;3.92;3.53;;;;;;;11.27;71.78;98827.72;5030517;28;20042;-65
2021/05/08 09:59:26;;;;;;;4.18;3.63;;;;;;;11.29;71.57;98812.31;5032328;28;20033;-60
2021/05/08 10:02:05;;;;;;;4.88;4.00;;;;;;;11.22;72.50;98807.75;5032048;28;20045;-61
2021/05/08 10:04:31;;;;;;;6.15;3.80;;;;;;;11.05;72.61;98819.13;5032137;28;20099;-61
2021/05/08 10:07:10;;;;;;;4.68;3.78;;;;;;;11.04;73.15;98785.31;5031033;28;20044;-63
2021/05/08 10:09:37;;;;;;;4.55;3.92;;;;;;;11.01;72.37;98785.63;5029496;28;20194;-62
2021/05/08 10:12:05;;;;;;;5.03;3.60;;;;;;;11.10;72.57;98781.19;5029374;28;20038;-63
2021/05/08 10:14:31;;;;;;;4.47;3.70;;;;;;;11.08;72.43;98785.84;5029978;28;20042;-62
2021/05/08 10:16:59;;;;;;;4.32;3.92;;;;;;;11.18;72.96;98804.53;5029595;28;20040;-61
2021/05/08 10:19:29;;;;;;;5.30;4.20;;;;;;;11.17;72.87;98805.53;5029947;28;20128;-61
2021/05/08 10:22:01;;;;;;;3.90;3.60;;;;;;;10.70;72.75;98713.69;5030894;28;20033;-60
2021/05/08 10:24:27;;;;;;;4.50;3.40;;;;;;;11.22;72.60;98797.88;5031909;28;20057;-64
2021/05/08 10:26:58;;;;;;;4.22;3.83;;;;;;;11.27;72.52;98817.00;5031568;28;20045;-61
2021/05/08 10:29:36;;;;;;;5.45;3.70;;;;;;;10.88;72.91;98727.09;5031610;28;20136;-60
2021/05/08 10:32:05;;;;;;;3.33;3.03;;;;;;;11.30;72.42;98802.47;5030902;28;20041;-62
2021/05/08 10:34:35;;;;;;;4.05;3.33;;;;;;;11.35;72.76;98792.13;5031537;28;20029;-62
2021/05/08 10:37:12;;;;;;;3.92;3.38;;;;;;;11.38;72.91;98785.63;5031962;28;20045;-62
2021/05/08 10:40:03;;;;;;;3.90;3.50;;;;;;;11.32;73.12;98785.22;5031455;28;20456;-62
2021/05/08 10:42:41;;;;;;;4.60;3.70;;;;;;;11.33;72.73;98791.44;5031568;28;20041;-62
2021/05/08 10:45:27;;;;;;;6.18;3.60;;;;;;;11.42;72.48;98787.81;5046922;28;20433;-64
2021/05/08 10:50:37;;;;;;;3.55;3.25;;;;;;;11.39;72.84;98793.50;5031186;28;20041;-61
2021/05/08 10:53:18;;;;;;;3.65;3.35;;;;;;;11.45;72.63;98789.34;5031559;28;20086;-62
2021/05/08 10:55:44;;;;;;;3.97;3.65;;;;;;;11.36;72.42;98787.63;5031769;28;20095;-61
2021/05/08 10:58:22;;;;;;;6.00;3.50;;;;;;;10.99;73.13;98706.44;5031372;28;20030;-61
2021/05/08 11:01:02;;;;;;;4.10;3.70;;;;;;;11.31;73.13;98763.97;5030912;28;20522;-62
2021/05/08 11:03:51;;;;;;;4.32;3.92;;;;;;;11.28;73.27;98773.13;5012963;28;20041;-61
2021/05/08 11:06:17;;;;;;;4.53;3.88;;;;;;;10.98;72.66;98716.28;5030383;28;20041;-62
2021/05/08 11:08:50;;;;;;;4.90;3.85;;;;;;;11.44;73.03;98785.00;5029547;28;20095;-59
2021/05/08 11:11:25;;;;;;;4.72;3.92;;;;;;;11.44;72.47;98783.13;5031270;28;20086;-63
2021/05/08 11:13:59;;;;;;;5.32;4.22;;;;;;;11.07;72.32;98727.94;5031000;28;20116;-63
2021/05/08 11:16:26;;;;;;;4.13;3.65;;;;;;;11.44;72.29;98776.94;5031118;28;20072;-61
2021/05/08 11:18:57;;;;;;;4.65;3.67;;;;;;;11.48;72.73;98808.66;5031017;28;20037;-60
2021/05/08 11:21:29;;;;;;;4.60;4.20;;;;;;;11.48;72.38;98783.69;5030579;28;20454;-61
2021/05/08 11:23:59;;;;;;;4.13;3.72;;;;;;;11.48;72.16;98781.00;5030589;28;20098;-61
2021/05/08 11:26:32;;;;;;;5.63;4.40;;;;;;;11.45;72.25;98771.44;5030722;28;20049;-61
2021/05/08 11:29:11;;;;;;;7.13;4.60;;;;;;;11.54;72.34;98775.00;5030831;28;20497;-61
2021/05/08 11:31:40;;;;;;;5.20;4.70;;;;;;;11.56;71.57;98782.91;5030658;28;20114;-62
2021/05/08 11:34:16;;;;;;;6.05;4.30;;;;;;;11.54;72.44;98769.66;5029557;28;20045;-65
2021/05/08 11:37:01;;;;;;;4.07;3.63;;;;;;;11.58;72.28;98771.03;5030777;28;20033;-63
2021/05/08 11:39:34;;;;;;;4.85;4.13;;;;;;;11.62;71.88;98776.91;5046255;28;20880;-61